sensor_id;sensor_type;location;lat;lon;timestamp;pressure;altitude;pressure_sealevel;temperature;humidity
11621;BME280;5866;49.094;11.900;2023-04-02T00:00:09;95338.38;;;9.34;100.00
11621;BME280;5866;49.094;11.900;2023-04-02T00:02:47;95343.66;;;9.34;100.00
11621;BME280;5866;49.094;11.900;2023-04-02T00:05:37;95340.88;;;9.05;100.00
11621;BME280;5866;49.094;11.900;2023-04-02T00:08:27;95343.75;;;8.56;100.00
11621;BME280;5866;49.094;11.900;2023-04-02T00:10:59;95357.91;;;8.63;100.00
11621;BME280;5866;49.094;11.900;2023-04-02T00:13:31;95355.13;;;9.26;100.00
11621;BME280;5866;49.094;11.900;2023-04-02T00:16:00;95359.22;;;9.06;100.00
11621;BME280;5866;49.094;11.900;2023-04-02T00:18:29;95362.38;;;9.02;100.00
11621;BME280;5866;49.094;11.900;2023-04-02T00:21:05;95349.38;;;9.45;100.00
11621;BME280;5866;49.094;11.900;2023-04-02T00:23:35;95353.47;;;9.71;100.00
11621;BME280;5866;49.094;11.900;2023-04-02T00:26:19;95351.34;;;9.21;100.00
11621;BME280;5866;49.094;11.900;2023-04-02T00:28:48;95357.94;;;9.25;100.00
11621;BME280;5866;49.094;11.900;2023-04-02T00:31:17;95352.63;;;9.70;100.00
11621;BME280;5866;49.094;11.900;2023-04-02T00:33:47;95350.91;;;9.40;100.00
11621;BME280;5866;49.094;11.900;2023-04-02T00:36:17;95356.75;;;9.05;100.00
11621;BME280;5866;49.094;11.900;2023-04-02T00:38:45;95362.63;;;8.84;100.00
11621;BME280;5866;49.094;11.900;2023-04-02T00:41:19;95362.50;;;8.77;100.00
11621;BME280;5866;49.094;11.900;2023-04-02T00:43:49;95368.44;;;8.33;100.00
11621;BME280;5866;49.094;11.900;2023-04-02T00:46:20;95369.91;;;8.35;100.00
11621;BME280;5866;49.094;11.900;2023-04-02T00:48:55;95365.00;;;7.92;100.00
11621;BME280;5866;49.094;11.900;2023-04-02T00:51:27;95365.97;;;7.99;100.00
11621;BME280;5866;49.094;11.900;2023-04-02T00:53:59;95368.81;;;7.89;100.00
11621;BME280;5866;49.094;11.900;2023-04-02T00:56:31;95367.97;;;8.29;100.00
11621;BME280;5866;49.094;11.900;2023-04-02T00:59:03;95374.53;;;8.41;100.00
11621;BME280;5866;49.094;11.900;2023-04-02T01:01:35;95368.69;;;8.54;100.00
11621;BME280;5866;49.094;11.900;2023-04-02T01:04:26;95368.31;;;8.73;100.00
11621;BME280;5866;49.094;11.900;2023-04-02T01:06:54;95360.25;;;8.97;100.00
11621;BME280;5866;49.094;11.900;2023-04-02T01:09:30;95371.09;;;8.71;100.00
11621;BME280;5866;49.094;11.900;2023-04-02T01:12:24;95368.63;;;8.70;100.00
11621;BME280;5866;49.094;11.900;2023-04-02T01:15:01;95365.81;;;8.79;100.00
11621;BME280;5866;49.094;11.900;2023-04-02T01:17:45;95371.06;;;8.88;100.00
11621;BME280;5866;49.094;11.900;2023-04-02T01:20:27;95378.25;;;9.02;100.00
11621;BME280;5866;49.094;11.900;2023-04-02T01:23:06;95370.81;;;8.97;100.00
11621;BME280;5866;49.094;11.900;2023-04-02T01:25:41;95375.31;;;9.50;100.00
11621;BME280;5866;49.094;11.900;2023-04-02T01:28:15;95370.63;;;9.07;100.00
11621;BME280;5866;49.094;11.900;2023-04-02T01:30:50;95376.13;;;8.97;100.00
11621;BME280;5866;49.094;11.900;2023-04-02T01:33:21;95380.84;;;9.10;100.00
11621;BME280;5866;49.094;11.900;2023-04-02T01:35:54;95384.28;;;9.41;100.00
11621;BME280;5866;49.094;11.900;2023-04-02T01:38:33;95383.19;;;9.05;100.00
11621;BME280;5866;49.094;11.900;2023-04-02T01:41:07;95386.00;;;8.64;100.00
11621;BME280;5866;49.094;11.900;2023-04-02T01:43:43;95387.84;;;8.95;100.00
11621;BME280;5866;49.094;11.900;2023-04-02T01:46:28;95395.53;;;8.73;100.00
11621;BME280;5866;49.094;11.900;2023-04-02T01:48:59;95391.28;;;9.03;100.00
11621;BME280;5866;49.094;11.900;2023-04-02T01:51:29;95393.63;;;9.29;100.00
11621;BME280;5866;49.094;11.900;2023-04-02T01:53:58;95388.69;;;8.56;100.00
11621;BME280;5866;49.094;11.900;2023-04-02T01:56:27;95391.13;;;9.05;100.00
11621;BME280;5866;49.094;11.900;2023-04-02T01:58:56;95394.59;;;9.36;100.00
11621;BME280;5866;49.094;11.900;2023-04-02T02:01:28;95396.66;;;8.87;100.00
11621;BME280;5866;49.094;11.900;2023-04-02T02:03:58;95407.19;;;8.95;100.00
11621;BME280;5866;49.094;11.900;2023-04-02T02:06:26;95397.97;;;9.22;100.00
11621;BME280;5866;49.094;11.900;2023-04-02T02:08:55;95401.84;;;9.42;100.00
11621;BME280;5866;49.094;11.900;2023-04-02T02:11:26;95406.34;;;9.03;100.00
11621;BME280;5866;49.094;11.900;2023-04-02T02:13:56;95402.31;;;9.15;100.00
11621;BME280;5866;49.094;11.900;2023-04-02T02:16:26;95405.56;;;8.86;100.00
11621;BME280;5866;49.094;11.900;2023-04-02T02:18:57;95411.56;;;9.19;100.00
11621;BME280;5866;49.094;11.900;2023-04-02T02:21:36;95416.91;;;9.64;100.00
11621;BME280;5866;49.094;11.900;2023-04-02T02:24:06;95413.34;;;9.49;100.00
11621;BME280;5866;49.094;11.900;2023-04-02T02:26:42;95416.66;;;9.51;100.00
11621;BME280;5866;49.094;11.900;2023-04-02T02:29:16;95424.56;;;8.98;100.00
11621;BME280;5866;49.094;11.900;2023-04-02T02:31:46;95431.84;;;8.96;100.00
11621;BME280;5866;49.094;11.900;2023-04-02T02:34:21;95433.31;;;9.29;100.00
11621;BME280;5866;49.094;11.900;2023-04-02T02:36:53;95429.47;;;9.09;100.00
11621;BME280;5866;49.094;11.900;2023-04-02T02:39:25;95429.97;;;9.35;100.00
11621;BME280;5866;49.094;11.900;2023-04-02T02:42:00;95431.09;;;9.71;100.00
11621;BME280;5866;49.094;11.900;2023-04-02T02:44:32;95422.50;;;10.14;100.00
11621;BME280;5866;49.094;11.900;2023-04-02T02:47:05;95427.59;;;10.38;100.00
11621;BME280;5866;49.094;11.900;2023-04-02T02:49:39;95433.84;;;10.75;100.00
11621;BME280;5866;49.094;11.900;2023-04-02T02:52:13;95432.75;;;10.17;100.00
11621;BME280;5866;49.094;11.900;2023-04-02T02:54:43;95431.63;;;10.34;100.00
11621;BME280;5866;49.094;11.900;2023-04-02T02:57:17;95442.41;;;10.48;100.00
11621;BME280;5866;49.094;11.900;2023-04-02T02:59:45;95437.59;;;10.28;100.00
11621;BME280;5866;49.094;11.900;2023-04-02T03:02:14;95443.63;;;10.22;100.00
11621;BME280;5866;49.094;11.900;2023-04-02T03:04:46;95444.72;;;10.13;100.00
11621;BME280;5866;49.094;11.900;2023-04-02T03:07:14;95439.25;;;10.29;100.00
11621;BME280;5866;49.094;11.900;2023-04-02T03:09:49;95437.81;;;10.42;100.00
11621;BME280;5866;49.094;11.900;2023-04-02T03:12:38;95446.31;;;10.37;100.00
11621;BME280;5866;49.094;11.900;2023-04-02T03:15:16;95449.50;;;10.10;100.00
11621;BME280;5866;49.094;11.900;2023-04-02T03:17:48;95454.72;;;10.26;100.00
11621;BME280;5866;49.094;11.900;2023-04-02T03:20:19;95463.34;;;10.43;100.00
11621;BME280;5866;49.094;11.900;2023-04-02T03:22:54;95454.22;;;10.45;100.00
11621;BME280;5866;49.094;11.900;2023-04-02T03:25:28;95458.69;;;10.45;100.00
11621;BME280;5866;49.094;11.900;2023-04-02T03:28:00;95460.81;;;10.49;100.00
11621;BME280;5866;49.094;11.900;2023-04-02T03:30:34;95463.31;;;10.28;100.00
11621;BME280;5866;49.094;11.900;2023-04-02T03:33:09;95471.28;;;9.97;100.00
11621;BME280;5866;49.094;11.900;2023-04-02T03:35:42;95470.69;;;10.10;100.00
11621;BME280;5866;49.094;11.900;2023-04-02T03:38:15;95465.53;;;10.16;100.00
11621;BME280;5866;49.094;11.900;2023-04-02T03:40:51;95461.53;;;10.20;100.00
11621;BME280;5866;49.094;11.900;2023-04-02T03:43:25;95462.31;;;10.44;100.00
11621;BME280;5866;49.094;11.900;2023-04-02T03:45:56;95476.09;;;9.71;100.00
11621;BME280;5866;49.094;11.900;2023-04-02T03:48:30;95478.25;;;9.98;100.00
11621;BME280;5866;49.094;11.900;2023-04-02T03:51:04;95472.13;;;10.20;100.00
11621;BME280;5866;49.094;11.900;2023-04-02T03:53:33;95481.03;;;10.27;100.00
11621;BME280;5866;49.094;11.900;2023-04-02T03:56:01;95478.72;;;10.47;100.00
11621;BME280;5866;49.094;11.900;2023-04-02T03:58:36;95483.09;;;10.17;100.00
11621;BME280;5866;49.094;11.900;2023-04-02T04:01:09;95494.44;;;9.50;100.00
11621;BME280;5866;49.094;11.900;2023-04-02T04:03:45;95496.66;;;9.69;100.00
11621;BME280;5866;49.094;11.900;2023-04-02T04:06:20;95498.63;;;9.67;100.00
11621;BME280;5866;49.094;11.900;2023-04-02T04:08:52;95495.34;;;9.65;100.00
11621;BME280;5866;49.094;11.900;2023-04-02T04:11:24;95503.25;;;9.73;100.00
11621;BME280;5866;49.094;11.900;2023-04-02T04:13:56;95506.38;;;9.99;100.00
11621;BME280;5866;49.094;11.900;2023-04-02T04:16:30;95513.22;;;9.63;100.00
11621;BME280;5866;49.094;11.900;2023-04-02T04:19:03;95513.47;;;9.45;100.00
11621;BME280;5866;49.094;11.900;2023-04-02T04:21:33;95523.53;;;9.50;100.00
11621;BME280;5866;49.094;11.900;2023-04-02T04:24:05;95524.63;;;9.25;100.00
11621;BME280;5866;49.094;11.900;2023-04-02T04:26:38;95530.41;;;9.67;100.00
11621;BME280;5866;49.094;11.900;2023-04-02T04:29:15;95533.69;;;9.30;100.00
11621;BME280;5866;49.094;11.900;2023-04-02T04:31:47;95540.03;;;9.60;100.00
11621;BME280;5866;49.094;11.900;2023-04-02T04:34:20;95528.91;;;9.95;100.00
11621;BME280;5866;49.094;11.900;2023-04-02T04:36:52;95549.03;;;9.43;100.00
11621;BME280;5866;49.094;11.900;2023-04-02T04:39:24;95550.28;;;9.63;100.00
11621;BME280;5866;49.094;11.900;2023-04-02T04:41:56;95549.34;;;9.01;100.00
11621;BME280;5866;49.094;11.900;2023-04-02T04:44:33;95550.44;;;9.23;100.00
11621;BME280;5866;49.094;11.900;2023-04-02T04:47:07;95547.94;;;8.50;100.00
11621;BME280;5866;49.094;11.900;2023-04-02T04:49:41;95563.44;;;8.45;100.00
11621;BME280;5866;49.094;11.900;2023-04-02T04:52:13;95571.47;;;8.03;100.00
11621;BME280;5866;49.094;11.900;2023-04-02T04:54:44;95576.50;;;8.47;100.00
11621;BME280;5866;49.094;11.900;2023-04-02T04:57:21;95580.78;;;8.32;100.00
11621;BME280;5866;49.094;11.900;2023-04-02T04:59:57;95586.22;;;8.30;100.00
11621;BME280;5866;49.094;11.900;2023-04-02T05:02:35;95594.34;;;7.79;100.00
11621;BME280;5866;49.094;11.900;2023-04-02T05:05:15;95594.38;;;7.87;100.00
11621;BME280;5866;49.094;11.900;2023-04-02T05:07:48;95601.38;;;8.12;100.00
11621;BME280;5866;49.094;11.900;2023-04-02T05:10:22;95597.41;;;8.08;100.00
11621;BME280;5866;49.094;11.900;2023-04-02T05:12:55;95603.94;;;7.96;100.00
11621;BME280;5866;49.094;11.900;2023-04-02T05:15:28;95609.94;;;8.06;100.00
11621;BME280;5866;49.094;11.900;2023-04-02T05:18:04;95611.84;;;7.88;100.00
11621;BME280;5866;49.094;11.900;2023-04-02T05:20:39;95618.13;;;7.87;100.00
11621;BME280;5866;49.094;11.900;2023-04-02T05:23:14;95620.63;;;7.96;100.00
11621;BME280;5866;49.094;11.900;2023-04-02T05:25:54;95620.78;;;7.95;100.00
11621;BME280;5866;49.094;11.900;2023-04-02T05:28:28;95615.81;;;8.58;100.00
11621;BME280;5866;49.094;11.900;2023-04-02T05:31:01;95612.00;;;8.85;100.00
11621;BME280;5866;49.094;11.900;2023-04-02T05:33:31;95617.31;;;7.86;100.00
11621;BME280;5866;49.094;11.900;2023-04-02T05:36:03;95622.91;;;8.25;100.00
11621;BME280;5866;49.094;11.900;2023-04-02T05:38:33;95628.53;;;8.54;100.00
11621;BME280;5866;49.094;11.900;2023-04-02T05:41:04;95630.84;;;8.41;100.00
11621;BME280;5866;49.094;11.900;2023-04-02T05:43:34;95628.19;;;8.41;100.00
11621;BME280;5866;49.094;11.900;2023-04-02T05:46:12;95630.53;;;8.52;100.00
11621;BME280;5866;49.094;11.900;2023-04-02T05:48:42;95633.78;;;8.38;100.00
11621;BME280;5866;49.094;11.900;2023-04-02T05:51:16;95638.94;;;8.64;100.00
11621;BME280;5866;49.094;11.900;2023-04-02T05:53:46;95631.16;;;8.95;100.00
11621;BME280;5866;49.094;11.900;2023-04-02T05:56:18;95640.13;;;8.77;100.00
11621;BME280;5866;49.094;11.900;2023-04-02T05:58:50;95642.06;;;8.59;100.00
11621;BME280;5866;49.094;11.900;2023-04-02T06:01:22;95643.06;;;8.82;100.00
11621;BME280;5866;49.094;11.900;2023-04-02T06:03:59;95646.03;;;8.71;100.00
11621;BME280;5866;49.094;11.900;2023-04-02T06:06:50;95652.94;;;8.40;100.00
11621;BME280;5866;49.094;11.900;2023-04-02T06:09:26;95657.25;;;8.33;100.00
11621;BME280;5866;49.094;11.900;2023-04-02T06:12:00;95664.75;;;8.04;100.00
11621;BME280;5866;49.094;11.900;2023-04-02T06:14:30;95665.41;;;8.14;100.00
11621;BME280;5866;49.094;11.900;2023-04-02T06:16:58;95665.09;;;8.17;100.00
11621;BME280;5866;49.094;11.900;2023-04-02T06:19:30;95670.72;;;8.22;100.00
11621;BME280;5866;49.094;11.900;2023-04-02T06:22:09;95660.81;;;8.16;100.00
11621;BME280;5866;49.094;11.900;2023-04-02T06:24:39;95674.97;;;8.15;100.00
11621;BME280;5866;49.094;11.900;2023-04-02T06:27:09;95683.06;;;8.14;100.00
11621;BME280;5866;49.094;11.900;2023-04-02T06:29:41;95681.41;;;8.54;100.00
11621;BME280;5866;49.094;11.900;2023-04-02T06:32:11;95681.56;;;8.53;100.00
11621;BME280;5866;49.094;11.900;2023-04-02T06:34:40;95683.34;;;8.36;100.00
11621;BME280;5866;49.094;11.900;2023-04-02T06:37:16;95682.59;;;8.18;100.00
11621;BME280;5866;49.094;11.900;2023-04-02T06:39:46;95699.34;;;8.27;100.00
11621;BME280;5866;49.094;11.900;2023-04-02T06:42:17;95698.19;;;8.29;100.00
11621;BME280;5866;49.094;11.900;2023-04-02T06:44:45;95705.50;;;8.43;100.00
11621;BME280;5866;49.094;11.900;2023-04-02T06:47:20;95706.31;;;8.44;100.00
11621;BME280;5866;49.094;11.900;2023-04-02T06:49:54;95710.53;;;8.21;100.00
11621;BME280;5866;49.094;11.900;2023-04-02T06:52:27;95715.28;;;8.17;100.00
11621;BME280;5866;49.094;11.900;2023-04-02T06:54:58;95714.53;;;8.33;100.00
11621;BME280;5866;49.094;11.900;2023-04-02T06:57:25;95721.81;;;8.39;100.00
11621;BME280;5866;49.094;11.900;2023-04-02T06:59:53;95727.53;;;8.76;100.00
11621;BME280;5866;49.094;11.900;2023-04-02T07:02:29;95717.09;;;8.58;100.00
11621;BME280;5866;49.094;11.900;2023-04-02T07:05:02;95720.72;;;8.57;100.00
11621;BME280;5866;49.094;11.900;2023-04-02T07:07:31;95729.28;;;8.51;100.00
11621;BME280;5866;49.094;11.900;2023-04-02T07:09:58;95726.66;;;8.59;100.00
11621;BME280;5866;49.094;11.900;2023-04-02T07:12:26;95737.78;;;8.79;100.00
11621;BME280;5866;49.094;11.900;2023-04-02T07:14:53;95737.88;;;8.45;100.00
11621;BME280;5866;49.094;11.900;2023-04-02T07:17:21;95743.75;;;8.81;100.00
11621;BME280;5866;49.094;11.900;2023-04-02T07:19:49;95733.34;;;9.04;100.00
11621;BME280;5866;49.094;11.900;2023-04-02T07:22:17;95739.94;;;8.92;100.00
11621;BME280;5866;49.094;11.900;2023-04-02T07:24:46;95737.63;;;8.89;100.00
11621;BME280;5866;49.094;11.900;2023-04-02T07:27:14;95740.91;;;8.74;100.00
11621;BME280;5866;49.094;11.900;2023-04-02T07:29:41;95739.91;;;8.67;100.00
11621;BME280;5866;49.094;11.900;2023-04-02T07:32:09;95749.63;;;8.59;100.00
11621;BME280;5866;49.094;11.900;2023-04-02T07:34:37;95753.13;;;8.75;100.00
11621;BME280;5866;49.094;11.900;2023-04-02T07:37:06;95754.94;;;8.67;100.00
11621;BME280;5866;49.094;11.900;2023-04-02T07:39:33;95771.31;;;8.70;100.00
11621;BME280;5866;49.094;11.900;2023-04-02T07:42:06;95766.50;;;8.74;100.00
11621;BME280;5866;49.094;11.900;2023-04-02T07:44:33;95762.91;;;8.91;100.00
11621;BME280;5866;49.094;11.900;2023-04-02T07:47:01;95770.69;;;8.93;100.00
11621;BME280;5866;49.094;11.900;2023-04-02T07:49:29;95772.34;;;9.02;100.00
11621;BME280;5866;49.094;11.900;2023-04-02T07:51:56;95777.81;;;9.00;100.00
11621;BME280;5866;49.094;11.900;2023-04-02T07:54:24;95772.28;;;8.61;100.00
11621;BME280;5866;49.094;11.900;2023-04-02T07:56:52;95782.91;;;8.86;100.00
11621;BME280;5866;49.094;11.900;2023-04-02T07:59:21;95784.25;;;9.06;100.00
11621;BME280;5866;49.094;11.900;2023-04-02T08:01:50;95793.88;;;9.07;100.00
11621;BME280;5866;49.094;11.900;2023-04-02T08:04:19;95800.00;;;9.23;100.00
11621;BME280;5866;49.094;11.900;2023-04-02T08:06:48;95803.75;;;8.97;100.00
11621;BME280;5866;49.094;11.900;2023-04-02T08:09:16;95801.81;;;9.15;100.00
11621;BME280;5866;49.094;11.900;2023-04-02T08:11:43;95809.28;;;9.35;100.00
11621;BME280;5866;49.094;11.900;2023-04-02T08:14:11;95809.41;;;9.18;100.00
11621;BME280;5866;49.094;11.900;2023-04-02T08:16:45;95810.22;;;9.10;100.00
11621;BME280;5866;49.094;11.900;2023-04-02T08:19:14;95811.25;;;9.33;100.00
11621;BME280;5866;49.094;11.900;2023-04-02T08:21:41;95813.22;;;9.96;100.00
11621;BME280;5866;49.094;11.900;2023-04-02T08:24:09;95809.75;;;9.87;100.00
11621;BME280;5866;49.094;11.900;2023-04-02T08:26:36;95815.06;;;9.71;100.00
11621;BME280;5866;49.094;11.900;2023-04-02T08:29:04;95819.66;;;9.13;100.00
11621;BME280;5866;49.094;11.900;2023-04-02T08:31:31;95834.75;;;8.70;100.00
11621;BME280;5866;49.094;11.900;2023-04-02T08:34:00;95835.81;;;8.86;100.00
11621;BME280;5866;49.094;11.900;2023-04-02T08:36:32;95833.19;;;9.02;100.00
11621;BME280;5866;49.094;11.900;2023-04-02T08:39:00;95843.16;;;9.24;100.00
11621;BME280;5866;49.094;11.900;2023-04-02T08:41:27;95837.56;;;9.43;100.00
11621;BME280;5866;49.094;11.900;2023-04-02T08:44:14;95840.47;;;9.00;100.00
11621;BME280;5866;49.094;11.900;2023-04-02T08:46:46;95845.84;;;9.40;100.00
11621;BME280;5866;49.094;11.900;2023-04-02T08:49:21;95847.44;;;9.09;100.00
11621;BME280;5866;49.094;11.900;2023-04-02T08:51:54;95846.50;;;9.42;100.00
11621;BME280;5866;49.094;11.900;2023-04-02T08:54:25;95848.13;;;9.43;100.00
11621;BME280;5866;49.094;11.900;2023-04-02T08:56:57;95849.16;;;9.34;100.00
11621;BME280;5866;49.094;11.900;2023-04-02T08:59:31;95850.44;;;9.22;100.00
11621;BME280;5866;49.094;11.900;2023-04-02T09:02:20;95863.13;;;9.02;100.00
11621;BME280;5866;49.094;11.900;2023-04-02T09:04:52;95866.63;;;9.11;100.00
11621;BME280;5866;49.094;11.900;2023-04-02T09:07:20;95860.50;;;9.02;100.00
11621;BME280;5866;49.094;11.900;2023-04-02T09:09:48;95869.56;;;9.00;100.00
11621;BME280;5866;49.094;11.900;2023-04-02T09:12:18;95871.19;;;8.93;100.00
11621;BME280;5866;49.094;11.900;2023-04-02T09:14:55;95869.16;;;8.78;100.00
11621;BME280;5866;49.094;11.900;2023-04-02T09:17:25;95879.78;;;8.95;100.00
11621;BME280;5866;49.094;11.900;2023-04-02T09:19:56;95880.16;;;9.00;100.00
11621;BME280;5866;49.094;11.900;2023-04-02T09:22:26;95882.88;;;8.82;100.00
11621;BME280;5866;49.094;11.900;2023-04-02T09:24:55;95883.47;;;9.10;100.00
11621;BME280;5866;49.094;11.900;2023-04-02T09:27:26;95883.84;;;9.15;100.00
11621;BME280;5866;49.094;11.900;2023-04-02T09:29:57;95888.97;;;9.32;100.00
11621;BME280;5866;49.094;11.900;2023-04-02T09:32:47;95895.44;;;9.30;100.00
11621;BME280;5866;49.094;11.900;2023-04-02T09:35:18;95904.16;;;9.14;100.00
11621;BME280;5866;49.094;11.900;2023-04-02T09:38:25;95900.53;;;9.15;100.00
11621;BME280;5866;49.094;11.900;2023-04-02T09:40:58;95908.63;;;9.14;100.00
11621;BME280;5866;49.094;11.900;2023-04-02T09:43:28;95913.66;;;9.41;100.00
11621;BME280;5866;49.094;11.900;2023-04-02T09:45:58;95913.38;;;9.76;100.00
11621;BME280;5866;49.094;11.900;2023-04-02T09:48:28;95909.03;;;9.51;100.00
11621;BME280;5866;49.094;11.900;2023-04-02T09:51:05;95918.69;;;9.84;100.00
11621;BME280;5866;49.094;11.900;2023-04-02T09:53:34;95917.34;;;9.72;100.00
11621;BME280;5866;49.094;11.900;2023-04-02T09:56:14;95916.69;;;9.78;100.00
11621;BME280;5866;49.094;11.900;2023-04-02T09:58:43;95943.59;;;9.33;100.00
11621;BME280;5866;49.094;11.900;2023-04-02T10:01:26;95946.94;;;8.68;100.00
11621;BME280;5866;49.094;11.900;2023-04-02T10:03:55;95948.28;;;8.46;100.00
11621;BME280;5866;49.094;11.900;2023-04-02T10:06:26;95949.75;;;8.66;100.00
11621;BME280;5866;49.094;11.900;2023-04-02T10:08:54;95953.50;;;8.56;100.00
11621;BME280;5866;49.094;11.900;2023-04-02T10:11:26;95969.50;;;8.11;100.00
11621;BME280;5866;49.094;11.900;2023-04-02T10:14:09;95970.84;;;8.15;100.00
11621;BME280;5866;49.094;11.900;2023-04-02T10:16:44;95977.19;;;8.22;100.00
11621;BME280;5866;49.094;11.900;2023-04-02T10:19:20;95975.28;;;8.50;100.00
11621;BME280;5866;49.094;11.900;2023-04-02T10:21:51;95984.06;;;8.33;100.00
11621;BME280;5866;49.094;11.900;2023-04-02T10:24:20;95993.72;;;8.42;100.00
11621;BME280;5866;49.094;11.900;2023-04-02T10:26:54;95986.19;;;8.55;100.00
11621;BME280;5866;49.094;11.900;2023-04-02T10:29:38;95988.56;;;8.40;100.00
11621;BME280;5866;49.094;11.900;2023-04-02T10:32:10;95989.38;;;7.97;100.00
11621;BME280;5866;49.094;11.900;2023-04-02T10:34:43;95989.28;;;8.07;100.00
11621;BME280;5866;49.094;11.900;2023-04-02T10:37:35;95996.75;;;8.12;100.00
11621;BME280;5866;49.094;11.900;2023-04-02T10:40:09;96001.78;;;8.40;100.00
11621;BME280;5866;49.094;11.900;2023-04-02T10:42:44;95998.66;;;8.62;100.00
11621;BME280;5866;49.094;11.900;2023-04-02T10:45:19;96011.53;;;8.40;100.00
11621;BME280;5866;49.094;11.900;2023-04-02T10:47:53;96006.53;;;8.19;100.00
11621;BME280;5866;49.094;11.900;2023-04-02T10:50:29;96011.38;;;8.24;100.00
11621;BME280;5866;49.094;11.900;2023-04-02T10:53:05;96026.97;;;8.27;100.00
11621;BME280;5866;49.094;11.900;2023-04-02T10:55:40;96030.69;;;8.24;100.00
11621;BME280;5866;49.094;11.900;2023-04-02T10:58:19;96035.84;;;7.90;100.00
11621;BME280;5866;49.094;11.900;2023-04-02T11:00:51;96034.63;;;8.02;100.00
11621;BME280;5866;49.094;11.900;2023-04-02T11:03:28;96040.41;;;8.33;100.00
11621;BME280;5866;49.094;11.900;2023-04-02T11:06:01;96038.78;;;8.40;100.00
11621;BME280;5866;49.094;11.900;2023-04-02T11:08:38;96047.81;;;8.55;100.00
11621;BME280;5866;49.094;11.900;2023-04-02T11:11:11;96048.50;;;8.22;100.00
11621;BME280;5866;49.094;11.900;2023-04-02T11:13:49;96044.56;;;8.09;100.00
11621;BME280;5866;49.094;11.900;2023-04-02T11:16:19;96045.25;;;8.11;100.00
11621;BME280;5866;49.094;11.900;2023-04-02T11:19:08;96065.97;;;8.50;100.00
11621;BME280;5866;49.094;11.900;2023-04-02T11:21:38;96067.88;;;8.84;100.00
11621;BME280;5866;49.094;11.900;2023-04-02T11:24:34;96067.78;;;8.50;100.00
11621;BME280;5866;49.094;11.900;2023-04-02T11:27:05;96059.22;;;8.56;100.00
11621;BME280;5866;49.094;11.900;2023-04-02T11:29:35;96064.00;;;8.35;100.00
11621;BME280;5866;49.094;11.900;2023-04-02T11:32:22;96065.53;;;8.37;100.00
11621;BME280;5866;49.094;11.900;2023-04-02T11:37:52;96067.75;;;7.97;100.00
11621;BME280;5866;49.094;11.900;2023-04-02T11:40:45;96075.16;;;7.93;100.00
11621;BME280;5866;49.094;11.900;2023-04-02T11:43:48;96087.63;;;8.36;100.00
11621;BME280;5866;49.094;11.900;2023-04-02T11:46:44;96078.91;;;9.05;100.00
11621;BME280;5866;49.094;11.900;2023-04-02T11:49:39;96079.34;;;9.26;100.00
11621;BME280;5866;49.094;11.900;2023-04-02T11:52:19;96078.63;;;9.16;100.00
11621;BME280;5866;49.094;11.900;2023-04-02T11:54:54;96079.25;;;8.84;100.00
11621;BME280;5866;49.094;11.900;2023-04-02T12:00:28;96088.75;;;8.95;100.00
11621;BME280;5866;49.094;11.900;2023-04-02T12:03:13;96086.59;;;8.90;100.00
11621;BME280;5866;49.094;11.900;2023-04-02T12:05:50;96092.19;;;8.69;100.00
11621;BME280;5866;49.094;11.900;2023-04-02T12:08:34;96090.22;;;8.71;100.00
11621;BME280;5866;49.094;11.900;2023-04-02T12:11:30;96107.91;;;8.18;100.00
11621;BME280;5866;49.094;11.900;2023-04-02T12:14:01;96108.09;;;8.34;100.00
11621;BME280;5866;49.094;11.900;2023-04-02T12:16:32;96109.84;;;8.43;100.00
11621;BME280;5866;49.094;11.900;2023-04-02T12:19:01;96104.88;;;8.13;100.00
11621;BME280;5866;49.094;11.900;2023-04-02T12:21:28;96118.34;;;8.02;100.00
11621;BME280;5866;49.094;11.900;2023-04-02T12:23:57;96118.91;;;7.96;100.00
11621;BME280;5866;49.094;11.900;2023-04-02T12:26:31;96117.84;;;7.89;100.00
11621;BME280;5866;49.094;11.900;2023-04-02T12:29:21;96127.09;;;8.20;100.00
11621;BME280;5866;49.094;11.900;2023-04-02T12:31:50;96129.41;;;8.50;100.00
11621;BME280;5866;49.094;11.900;2023-04-02T12:34:20;96122.81;;;8.72;100.00
11621;BME280;5866;49.094;11.900;2023-04-02T12:36:52;96131.44;;;8.39;100.00
11621;BME280;5866;49.094;11.900;2023-04-02T12:39:21;96129.78;;;8.99;100.00
11621;BME280;5866;49.094;11.900;2023-04-02T12:41:52;96132.38;;;9.42;100.00
11621;BME280;5866;49.094;11.900;2023-04-02T12:44:23;96141.22;;;9.25;100.00
11621;BME280;5866;49.094;11.900;2023-04-02T12:46:51;96141.41;;;9.06;100.00
11621;BME280;5866;49.094;11.900;2023-04-02T12:49:24;96142.03;;;9.00;100.00
11621;BME280;5866;49.094;11.900;2023-04-02T12:51:53;96154.50;;;9.33;100.00
11621;BME280;5866;49.094;11.900;2023-04-02T12:54:22;96154.81;;;9.30;100.00
11621;BME280;5866;49.094;11.900;2023-04-02T12:56:50;96154.31;;;9.60;100.00
11621;BME280;5866;49.094;11.900;2023-04-02T12:59:29;96146.03;;;9.55;100.00
11621;BME280;5866;49.094;11.900;2023-04-02T13:01:58;96136.72;;;8.56;100.00
11621;BME280;5866;49.094;11.900;2023-04-02T13:04:26;96160.44;;;8.31;100.00
11621;BME280;5866;49.094;11.900;2023-04-02T13:06:54;96158.09;;;8.63;100.00
11621;BME280;5866;49.094;11.900;2023-04-02T13:09:29;96159.38;;;8.76;100.00
11621;BME280;5866;49.094;11.900;2023-04-02T13:11:57;96162.53;;;8.98;100.00
11621;BME280;5866;49.094;11.900;2023-04-02T13:14:26;96155.97;;;8.66;100.00
11621;BME280;5866;49.094;11.900;2023-04-02T13:16:54;96168.22;;;8.50;100.00
11621;BME280;5866;49.094;11.900;2023-04-02T13:19:28;96160.03;;;8.78;100.00
11621;BME280;5866;49.094;11.900;2023-04-02T13:21:57;96170.03;;;8.49;100.00
11621;BME280;5866;49.094;11.900;2023-04-02T13:24:27;96175.75;;;8.27;100.00
11621;BME280;5866;49.094;11.900;2023-04-02T13:26:56;96180.56;;;8.32;100.00
11621;BME280;5866;49.094;11.900;2023-04-02T13:29:27;96183.31;;;8.40;100.00
11621;BME280;5866;49.094;11.900;2023-04-02T13:31:57;96183.03;;;8.60;100.00
11621;BME280;5866;49.094;11.900;2023-04-02T13:34:25;96166.13;;;8.71;100.00
11621;BME280;5866;49.094;11.900;2023-04-02T13:36:53;96179.06;;;8.82;100.00